Time;durP1;ratioP1;P1;durP2;ratioP2;P2;SDS_P1;SDS_P2;PMS_P1;PMS_P2;Temp;Humidity;BMP_temperature;BMP_pressure;BME280_temperature;BME280_humidity;BME280_pressure;Samples;Min_cycle;Max_cycle;Signal;HPM_P1;HPM_P2
2023/05/12 00:01:33;;;;;;;5.03;4.63;;;10.70;99.90;;;10.55;94.17;97740.38;5085970;28;20454;-79
2023/05/12 00:04:00;;;;;;;5.53;4.90;;;10.70;99.90;;;10.59;94.23;97748.88;5091176;28;20451;-83
2023/05/12 00:06:28;;;;;;;5.77;4.20;;;10.70;99.90;;;10.48;94.99;97755.84;5090486;28;20827;-83
2023/05/12 00:08:55;;;;;;;4.07;3.60;;;10.70;99.90;;;10.57;94.45;97753.69;5086704;28;20455;-80
2023/05/12 00:11:22;;;;;;;5.17;4.07;;;10.70;99.90;;;10.58;94.34;97744.53;5083949;28;20455;-83
2023/05/12 00:13:50;;;;;;;5.60;4.50;;;10.70;99.90;;;10.33;94.60;97715.63;5091170;28;20452;-83
2023/05/12 00:16:19;;;;;;;6.50;5.60;;;10.70;99.90;;;10.42;94.93;97744.03;5092260;28;20872;-83
2023/05/12 00:18:46;;;;;;;5.50;4.97;;;10.70;99.90;;;10.42;94.66;97740.50;5098057;28;20507;-81
2023/05/12 00:21:14;;;;;;;5.23;4.73;;;10.70;99.90;;;10.43;95.47;97748.41;5084005;28;21006;-81
2023/05/12 00:23:41;;;;;;;6.67;5.43;;;10.60;99.90;;;10.30;95.69;97726.88;5092166;28;20467;-80
2023/05/12 00:26:10;;;;;;;6.07;4.97;;;10.60;99.90;;;10.51;95.65;97738.34;5095298;28;20915;-81
2023/05/12 00:28:37;;;;;;;4.77;4.27;;;10.60;99.90;;;10.49;94.37;97743.97;5077787;28;20448;-82
2023/05/12 00:31:05;;;;;;;5.30;4.80;;;10.60;99.90;;;10.44;94.69;97739.25;5105021;28;20465;-81
2023/05/12 00:33:34;;;;;;;4.93;4.43;;;10.60;99.90;;;10.59;95.02;97741.59;5093766;28;20507;-82
2023/05/12 00:36:02;;;;;;;4.90;4.00;;;10.70;99.90;;;10.53;94.85;97730.84;5086452;28;20448;-81
2023/05/12 00:38:33;;;;;;;5.90;5.07;;;10.70;99.90;;;10.61;94.51;97735.97;5102530;28;20511;-84
2023/05/12 00:41:00;;;;;;;5.10;4.60;;;10.70;99.90;;;10.51;94.13;97733.78;5084267;28;20452;-82
2023/05/12 00:43:28;;;;;;;5.60;5.10;;;10.70;99.90;;;10.47;94.36;97737.97;5076844;28;20437;-83
2023/05/12 00:45:56;;;;;;;5.07;4.57;;;10.60;99.90;;;10.53;94.20;97736.25;5092184;28;20460;-80
2023/05/12 00:48:24;;;;;;;5.30;4.80;;;10.60;99.90;;;10.44;94.65;97731.13;5097887;28;20557;-80
2023/05/12 00:50:54;;;;;;;6.07;4.57;;;10.60;99.90;;;10.35;94.97;97719.75;5086849;28;20436;-80
2023/05/12 00:53:22;;;;;;;5.23;4.70;;;10.60;99.90;;;10.46;94.68;97741.69;5112722;28;20465;-79
2023/05/12 00:55:49;;;;;;;5.83;4.87;;;10.60;99.90;;;10.53;95.26;97730.84;5104261;28;20456;-80
2023/05/12 00:58:17;;;;;;;5.70;4.70;;;10.60;99.90;;;10.66;94.55;97735.31;5103879;28;20475;-80
2023/05/12 01:00:45;;;;;;;8.60;5.87;;;10.60;99.90;;;10.53;94.58;97730.84;5082659;28;20442;-80
2023/05/12 01:03:13;;;;;;;6.80;5.70;;;10.60;99.90;;;10.05;94.66;97663.75;5097227;28;20475;-81
2023/05/12 01:05:52;;;;;;;5.50;4.97;;;10.60;99.90;;;10.46;94.85;97706.59;5069162;28;20474;-84
2023/05/12 01:08:20;;;;;;;5.80;5.20;;;10.70;99.90;;;10.57;94.09;97737.47;5075356;28;20443;-82
2023/05/12 01:10:49;;;;;;;6.23;5.00;;;10.60;99.90;;;10.55;94.34;97736.88;5072141;28;20454;-82
2023/05/12 01:13:16;;;;;;;5.80;5.20;;;10.60;99.90;;;10.52;94.50;97718.38;5093330;28;20444;-81
2023/05/12 01:15:49;;;;;;;5.47;4.97;;;10.70;99.90;;;10.60;94.66;97721.63;5093328;28;21283;-82
2023/05/12 01:18:20;;;;;;;5.53;4.97;;;10.70;99.90;;;10.61;94.78;97730.56;5077114;28;20471;-82
2023/05/12 01:20:48;;;;;;;5.60;5.10;;;10.70;99.90;;;10.58;94.72;97723.72;5102158;28;20456;-80
2023/05/12 01:23:20;;;;;;;6.53;5.37;;;10.70;99.90;;;10.65;94.41;97712.84;5104512;28;20490;-84
2023/05/12 01:25:51;;;;;;;6.43;4.77;;;10.70;99.90;;;10.71;94.86;97728.19;5102735;28;20447;-81
2023/05/12 01:28:21;;;;;;;6.57;5.30;;;10.70;99.90;;;10.46;94.32;97685.81;5093662;28;20444;-79
2023/05/12 01:30:49;;;;;;;5.67;5.07;;;10.70;99.90;;;10.70;95.07;97723.84;5094914;28;20673;-85
2023/05/12 01:33:17;;;;;;;4.93;4.50;;;10.70;99.90;;;10.58;95.40;97725.63;5100728;28;20469;-81
2023/05/12 01:35:44;;;;;;;6.53;5.43;;;10.70;99.90;;;10.55;96.91;97726.06;5086054;28;20509;-79
2023/05/12 01:38:11;;;;;;;5.80;4.67;;;10.60;99.90;;;10.13;96.06;97641.03;5084437;28;20471;-84
2023/05/12 01:40:39;;;;;;;6.10;5.50;;;10.60;99.90;;;10.65;96.14;97720.97;5098354;28;20838;-82
2023/05/12 01:43:06;;;;;;;8.67;5.90;;;10.70;99.90;;;10.68;94.98;97720.50;5095978;28;20540;-81
2023/05/12 01:45:35;;;;;;;6.20;5.60;;;10.70;99.90;;;10.64;95.17;97716.59;5078093;28;20459;-83
2023/05/12 01:48:03;;;;;;;5.17;4.33;;;10.70;99.90;;;10.73;94.12;97720.69;5062391;28;20447;-83
2023/05/12 01:50:31;;;;;;;7.93;5.60;;;10.70;99.90;;;10.62;94.51;97718.72;5063527;28;20975;-84
2023/05/12 01:52:58;;;;;;;5.83;4.60;;;10.70;99.90;;;10.56;94.81;97720.44;5092673;28;20447;-81
2023/05/12 01:55:26;;;;;;;5.70;5.10;;;10.70;99.90;;;10.33;95.34;97672.41;5095803;28;20452;-84
2023/05/12 01:57:54;;;;;;;6.40;5.30;;;10.70;99.90;;;10.70;94.96;97717.59;5089173;28;20684;-85
2023/05/12 02:00:21;;;;;;;7.17;5.87;;;10.70;99.90;;;10.66;95.05;97713.69;5086549;28;20485;-82
2023/05/12 02:02:50;;;;;;;7.23;6.37;;;10.70;99.90;;;10.42;95.23;97686.47;5089113;28;20487;-82
2023/05/12 02:05:17;;;;;;;7.37;6.33;;;10.70;99.90;;;10.61;95.87;97720.59;5065217;28;20985;-81
2023/05/12 02:07:45;;;;;;;7.00;5.77;;;10.70;99.90;;;10.67;95.85;97715.34;5069248;28;20500;-80
2023/05/12 02:10:12;;;;;;;8.90;6.63;;;10.70;99.90;;;10.67;95.99;97713.44;5086722;28;20448;-82
2023/05/12 02:12:39;;;;;;;8.13;6.80;;;10.80;99.90;;;10.18;95.65;97649.28;5081954;28;20447;-81
2023/05/12 02:15:08;;;;;;;6.43;5.77;;;10.80;99.90;;;10.50;95.57;97686.22;5089036;28;20550;-79
2023/05/12 02:17:35;;;;;;;7.90;6.87;;;10.70;99.90;;;10.55;95.31;97696.34;5085299;28;20468;-80
2023/05/12 02:20:05;;;;;;;7.20;6.47;;;10.80;99.90;;;10.67;95.36;97710.75;5069947;28;20953;-83
2023/05/12 02:22:33;;;;;;;7.93;6.13;;;10.80;99.90;;;10.76;94.95;97722.94;5088337;28;20491;-81
2023/05/12 02:25:00;;;;;;;8.23;7.23;;;10.80;99.90;;;10.73;95.90;97715.28;5089820;28;20456;-81
2023/05/12 02:27:27;;;;;;;7.47;6.13;;;10.70;99.90;;;10.41;95.99;97684.84;5081845;28;20463;-82
2023/05/12 02:29:55;;;;;;;9.10;6.20;;;10.70;99.90;;;10.43;96.44;97707.03;5071979;28;20475;-82
2023/05/12 02:32:22;;;;;;;8.77;6.60;;;10.60;99.90;;;10.47;95.57;97713.66;5090341;28;20467;-81
2023/05/12 02:34:51;;;;;;;7.77;6.80;;;10.70;99.90;;;10.44;96.26;97706.00;5085875;28;20546;-79
2023/05/12 02:37:20;;;;;;;10.30;7.03;;;10.60;99.90;;;10.49;95.73;97711.56;5090663;28;20566;-84
2023/05/12 02:39:48;;;;;;;7.50;6.60;;;10.60;99.90;;;10.45;96.12;97708.47;5088563;28;20453;-84
2023/05/12 02:42:15;;;;;;;7.33;6.00;;;10.60;99.90;;;10.10;95.85;97663.09;5074168;28;20488;-82
2023/05/12 02:44:43;;;;;;;8.47;6.53;;;10.60;99.90;;;10.55;95.90;97712.56;5088921;28;20456;-79
2023/05/12 02:47:10;;;;;;;7.70;6.23;;;10.60;99.90;;;9.98;95.42;97630.56;5074190;28;20957;-86
2023/05/12 02:49:38;;;;;;;7.30;6.37;;;10.70;99.90;;;10.59;95.43;97711.06;5096922;28;20446;-83
2023/05/12 02:52:06;;;;;;;7.10;6.40;;;10.60;99.90;;;10.65;94.99;97712.03;5091981;28;20467;-82
2023/05/12 02:54:35;;;;;;;6.93;6.30;;;10.70;99.90;;;10.58;95.10;97712.09;5094688;28;20446;-82
2023/05/12 02:57:05;;;;;;;7.93;7.13;;;10.70;99.90;;;10.45;95.48;97691.44;5083178;28;20470;-83
2023/05/12 02:59:34;;;;;;;8.30;7.17;;;10.70;99.90;;;10.59;95.32;97703.75;5071489;28;20453;-82
2023/05/12 03:02:01;;;;;;;8.20;7.30;;;10.70;99.90;;;10.51;95.36;97692.41;5081855;28;20455;-82
2023/05/12 03:04:28;;;;;;;8.70;7.40;;;10.70;99.90;;;10.43;94.77;97697.06;5079919;28;20462;-81
2023/05/12 03:06:56;;;;;;;7.70;6.80;;;10.70;99.90;;;10.40;95.67;97693.97;5071572;28;20451;-82
2023/05/12 03:09:24;;;;;;;9.03;7.00;;;10.70;99.90;;;10.57;95.86;97699.66;5091666;28;20437;-80
2023/05/12 03:11:53;;;;;;;12.10;6.30;;;10.70;99.90;;;10.60;94.51;97696.50;5089477;28;20467;-83
2023/05/12 03:14:20;;;;;;;9.03;7.40;;;10.70;99.90;;;9.99;94.78;97621.41;5073495;28;20482;-80
2023/05/12 03:16:48;;;;;;;8.43;6.03;;;10.70;99.90;;;10.43;94.77;97693.53;5090988;28;20550;-80
2023/05/12 03:19:16;;;;;;;10.20;7.60;;;10.60;99.90;;;10.42;95.08;97681.94;5110939;28;21054;-79
2023/05/12 03:21:45;;;;;;;10.93;5.57;;;10.60;99.90;;;10.52;95.20;97696.78;5098448;28;20466;-80
2023/05/12 03:24:13;;;;;;;8.10;7.30;;;10.60;99.90;;;10.45;94.68;97692.28;5094569;28;20523;-82
2023/05/12 03:26:40;;;;;;;7.70;5.73;;;10.60;99.90;;;10.52;95.38;97697.63;5102654;28;20457;-84
2023/05/12 03:29:09;;;;;;;6.77;5.57;;;10.60;99.90;;;10.54;94.35;97694.66;5095776;28;20475;-82
2023/05/12 03:31:36;;;;;;;8.00;6.67;;;10.60;99.90;;;10.59;93.90;97697.56;5052422;28;20457;-84
2023/05/12 03:34:03;;;;;;;7.40;5.97;;;10.70;99.90;;;10.54;94.54;97695.50;5104368;28;20452;-84
2023/05/12 03:36:31;;;;;;;9.70;6.50;;;10.70;99.90;;;10.47;94.62;97695.56;5077608;28;20454;-84
2023/05/12 03:38:58;;;;;;;6.83;6.13;;;10.60;99.90;;;10.59;94.16;97702.94;5094904;28;20473;-83
2023/05/12 03:41:26;;;;;;;8.07;6.30;;;10.70;99.90;;;10.56;93.66;97689.91;5078930;28;20443;-81
2023/05/12 03:43:53;;;;;;;8.70;7.00;;;10.70;99.90;;;10.51;94.19;97700.53;5078488;28;20473;-82
2023/05/12 03:46:22;;;;;;;7.73;6.33;;;10.70;99.90;;;10.54;93.94;97697.38;5088876;28;21232;-81
2023/05/12 03:48:51;;;;;;;7.70;6.80;;;10.70;99.90;;;10.56;94.46;97696.09;5069739;28;20470;-86
2023/05/12 03:51:20;;;;;;;7.23;6.53;;;10.70;99.90;;;10.01;94.05;97615.81;5095474;28;20465;-81
2023/05/12 03:53:48;;;;;;;7.23;6.10;;;10.70;99.90;;;10.60;93.96;97693.78;5094635;28;20481;-83
2023/05/12 03:56:15;;;;;;;6.60;5.87;;;10.70;99.90;;;10.06;93.75;97634.84;5092443;28;20542;-83
2023/05/12 03:58:45;;;;;;;9.13;6.23;;;10.70;99.90;;;10.00;93.41;97608.75;5090650;28;20564;-81
2023/05/12 04:01:12;;;;;;;10.70;6.00;;;10.70;99.90;;;10.50;93.72;97699.72;5087087;28;20458;-83
2023/05/12 04:03:42;;;;;;;6.03;5.43;;;10.70;99.90;;;10.61;93.03;97695.44;5092951;28;20466;-83
2023/05/12 04:06:09;;;;;;;6.50;5.80;;;10.70;99.90;;;10.42;93.40;97678.38;5072809;28;20525;-81
2023/05/12 04:08:37;;;;;;;8.00;6.90;;;10.70;99.90;;;10.67;93.40;97702.66;5075207;28;20897;-83
2023/05/12 04:11:04;;;;;;;8.30;7.50;;;10.80;99.90;;;10.47;93.11;97690.19;5069297;28;20474;-83
2023/05/12 04:13:32;;;;;;;6.77;6.07;;;10.80;99.90;;;10.52;92.96;97691.38;5068401;28;20457;-86
2023/05/12 04:16:00;;;;;;;7.73;6.60;;;10.80;99.90;;;10.58;93.06;97702.13;5088215;28;20469;-83
2023/05/12 04:18:29;;;;;;;6.40;5.67;;;10.80;99.90;;;10.58;93.09;97702.13;5094045;28;20465;-83
2023/05/12 04:20:57;;;;;;;8.23;6.50;;;10.80;99.90;;;10.57;92.87;97737.47;5074885;28;21120;-81
2023/05/12 04:23:25;;;;;;;7.13;6.43;;;10.80;99.90;;;10.48;92.29;97709.91;5095607;28;20455;-83
2023/05/12 04:25:53;;;;;;;8.63;6.60;;;10.70;99.90;;;10.17;92.54;97661.13;5086241;28;20437;-80
2023/05/12 04:28:20;;;;;;;7.50;6.80;;;10.80;99.90;;;9.19;91.80;97506.94;5080773;28;20443;-83
2023/05/12 04:30:48;;;;;;;8.20;6.90;;;10.80;99.90;;;10.44;92.87;97696.03;5088579;28;20533;-81
2023/05/12 04:33:15;;;;;;;7.20;6.37;;;10.80;99.90;;;10.60;92.29;97715.41;5065683;28;20481;-83
2023/05/12 04:35:43;;;;;;;7.80;6.80;;;10.80;99.90;;;10.59;92.33;97722.69;5102399;28;20534;-81
2023/05/12 04:38:12;;;;;;;7.17;5.77;;;10.80;99.90;;;10.75;91.90;97713.16;5093670;28;20480;-72
2023/05/12 04:40:39;;;;;;;7.47;6.40;;;10.90;99.90;;;10.72;91.33;97718.19;5084407;28;20513;-72
2023/05/12 04:43:07;;;;;;;6.50;5.53;;;10.90;99.90;;;10.65;91.42;97715.56;5086914;28;20518;-72
2023/05/12 04:45:34;;;;;;;6.70;5.80;;;11.00;99.90;;;10.79;90.88;97728.94;5087473;28;20454;-72
2023/05/12 04:48:01;;;;;;;7.03;6.17;;;11.00;99.90;;;10.83;90.78;97716.63;5086801;28;20450;-73
2023/05/12 04:50:28;;;;;;;6.53;5.83;;;11.00;99.90;;;10.94;89.83;97723.97;5079594;28;20516;-73
2023/05/12 04:52:55;;;;;;;7.70;5.93;;;11.10;99.90;;;10.86;90.79;97724.31;5073932;28;20508;-74
2023/05/12 04:55:25;;;;;;;6.87;6.13;;;11.10;99.90;;;11.08;90.33;97707.63;5090976;28;20458;-73
2023/05/12 04:57:52;;;;;;;6.73;5.70;;;11.10;99.90;;;11.19;89.67;97725.78;5081354;28;20489;-72
2023/05/12 05:00:19;;;;;;;8.00;6.20;;;11.20;99.90;;;11.31;90.24;97717.72;5083895;28;20522;-74
2023/05/12 05:02:47;;;;;;;6.33;5.73;;;11.30;99.90;;;11.17;89.25;97720.59;5077362;28;20458;-75
2023/05/12 05:05:14;;;;;;;9.23;6.23;;;11.30;99.90;;;11.25;88.83;97711.34;5065465;28;20455;-74
2023/05/12 05:07:41;;;;;;;7.27;5.40;;;11.30;99.90;;;11.19;88.27;97723.09;5081740;28;20452;-76
2023/05/12 05:10:09;;;;;;;5.93;5.43;;;11.30;99.90;;;11.16;89.62;97718.13;5075311;28;20448;-76
2023/05/12 05:12:38;;;;;;;9.77;6.77;;;11.30;99.90;;;11.36;88.65;97730.59;5087228;28;20449;-75
2023/05/12 05:15:08;;;;;;;8.07;5.90;;;11.40;99.90;;;11.55;87.88;97731.38;5079231;28;20531;-76
2023/05/12 05:17:36;;;;;;;6.37;5.60;;;11.50;99.90;;;11.47;87.26;97719.81;5064677;28;20458;-73
2023/05/12 05:20:06;;;;;;;6.70;5.93;;;11.60;98.90;;;11.36;88.17;97727.88;5070598;28;20454;-73
2023/05/12 05:22:33;;;;;;;6.57;5.83;;;11.50;99.80;;;11.38;88.41;97728.47;5091242;28;20909;-73
2023/05/12 05:25:00;;;;;;;6.80;6.10;;;11.60;99.90;;;11.52;87.38;97737.22;5081737;28;20471;-74
2023/05/12 05:27:28;;;;;;;6.37;5.77;;;11.60;99.80;;;11.53;87.27;97734.31;5065643;28;21001;-75
2023/05/12 05:29:57;;;;;;;6.00;5.40;;;11.70;99.10;;;11.58;87.45;97720.09;5063915;28;20467;-75
2023/05/12 05:32:24;;;;;;;6.40;5.67;;;11.80;99.40;;;11.66;87.64;97718.94;5059051;28;20459;-76
2023/05/12 05:34:51;;;;;;;6.67;6.07;;;11.80;99.70;;;11.92;86.43;97738.56;5080018;28;20453;-79
2023/05/12 05:37:19;;;;;;;6.80;6.10;;;12.00;98.50;;;11.97;86.08;97738.69;5084300;28;20811;-83
2023/05/12 05:39:46;;;;;;;6.70;5.90;;;12.10;97.40;;;11.74;85.70;97751.09;5076304;28;20987;-76
2023/05/12 05:42:14;;;;;;;6.17;5.57;;;12.00;96.30;;;11.73;85.77;97730.50;5090999;28;20447;-80
2023/05/12 05:44:42;;;;;;;5.60;5.10;;;12.00;96.10;;;11.95;85.47;97740.81;5082865;28;20453;-81
2023/05/12 05:47:10;;;;;;;7.43;4.77;;;12.00;96.60;;;12.04;84.66;97736.72;5070947;28;20464;-79
2023/05/12 05:49:38;;;;;;;5.43;4.93;;;12.10;95.90;;;12.02;85.33;97730.72;5084671;28;20462;-75
2023/05/12 05:52:06;;;;;;;6.50;5.40;;;12.20;96.50;;;12.00;84.35;97732.81;5058474;28;20446;-76
2023/05/12 05:54:33;;;;;;;6.73;6.03;;;12.20;95.20;;;12.09;84.05;97726.06;5079962;28;20505;-75
2023/05/12 05:57:01;;;;;;;5.93;5.43;;;12.30;95.40;;;12.24;84.04;97749.16;5081253;28;20459;-76
2023/05/12 05:59:29;;;;;;;7.10;5.57;;;12.40;95.30;;;12.07;83.70;97752.53;5066924;28;20490;-75
2023/05/12 06:01:56;;;;;;;6.07;5.40;;;12.30;94.50;;;11.89;83.32;97742.56;5060453;28;20459;-75
2023/05/12 06:04:25;;;;;;;7.90;6.07;;;12.30;94.00;;;12.00;84.50;97754.47;5079558;28;20481;-73
2023/05/12 06:06:53;;;;;;;5.67;5.17;;;12.20;95.20;;;12.02;83.74;97755.09;5055969;28;20471;-75
2023/05/12 06:09:20;;;;;;;6.40;5.67;;;12.30;94.50;;;12.02;84.42;97763.22;5065782;28;20464;-72
2023/05/12 06:11:47;;;;;;;5.90;5.40;;;12.20;95.20;;;11.87;84.43;97766.31;5067154;28;20455;-75
2023/05/12 06:14:16;;;;;;;5.33;4.80;;;12.20;94.50;;;12.17;84.30;97760.91;5082184;28;20442;-72
2023/05/12 06:16:43;;;;;;;6.80;5.40;;;12.20;95.80;;;12.23;84.89;97771.88;5058735;28;20455;-73
2023/05/12 06:19:11;;;;;;;5.43;4.90;;;12.30;96.20;;;12.03;84.36;97764.88;5067096;28;20864;-74
2023/05/12 06:21:39;;;;;;;7.20;5.80;;;12.30;95.30;;;12.04;84.73;97759.22;5082968;28;20458;-74
2023/05/12 06:24:07;;;;;;;5.80;5.20;;;12.20;96.10;;;12.19;84.04;97769.63;5065656;28;20461;-73
2023/05/12 06:26:34;;;;;;;9.30;5.80;;;12.30;95.60;;;12.05;84.83;97776.28;5058546;28;20562;-74
2023/05/12 06:29:02;;;;;;;9.17;5.17;;;12.20;95.90;;;12.06;85.30;97769.84;5063335;28;21043;-72
2023/05/12 06:31:29;;;;;;;5.77;5.27;;;12.20;96.50;;;12.01;86.04;97781.34;5069141;28;20470;-73
2023/05/12 06:33:57;;;;;;;5.97;5.37;;;12.20;97.40;;;12.05;87.04;97784.41;5083763;28;20475;-74
2023/05/12 06:36:24;;;;;;;6.23;5.47;;;12.20;99.40;;;12.28;84.90;97777.41;5062205;28;20451;-72
2023/05/12 06:38:53;;;;;;;6.57;5.87;;;12.40;96.70;;;12.49;84.41;97783.34;5080625;28;20477;-73
2023/05/12 06:41:20;;;;;;;5.93;5.40;;;12.50;96.00;;;12.34;84.33;97781.91;5073134;28;20452;-74
2023/05/12 06:43:48;;;;;;;6.20;4.87;;;12.60;95.10;;;12.37;84.04;97786.88;5074052;28;20548;-75
2023/05/12 06:46:15;;;;;;;5.37;4.87;;;12.60;94.90;;;12.27;84.07;97786.59;5062587;28;20516;-74
2023/05/12 06:48:42;;;;;;;5.90;5.40;;;12.50;94.60;;;12.41;84.41;97787.22;5084364;28;20463;-74
2023/05/12 06:51:09;;;;;;;6.50;5.83;;;12.60;95.50;;;12.44;84.43;97789.47;5059032;28;20523;-73
2023/05/12 06:53:37;;;;;;;6.10;5.13;;;12.60;95.80;;;12.52;84.20;97789.13;5083013;28;20456;-75
2023/05/12 06:56:06;;;;;;;6.63;4.93;;;12.70;95.30;;;12.79;82.92;97782.41;5063259;28;20726;-75
2023/05/12 06:58:33;;;;;;;5.17;4.53;;;12.90;94.40;;;13.01;81.91;97783.47;5073492;28;20502;-74
2023/05/12 07:01:00;;;;;;;6.00;4.87;;;13.00;93.90;;;13.04;81.49;97785.72;5074606;28;20475;-72
2023/05/12 07:03:31;;;;;;;5.80;5.20;;;13.20;93.60;;;12.97;81.22;97779.59;5083814;28;20448;-73
2023/05/12 07:05:58;;;;;;;5.23;4.73;;;13.20;92.90;;;13.01;82.54;97785.34;5061836;28;21192;-74
2023/05/12 07:08:26;;;;;;;4.80;4.40;;;13.20;94.00;;;12.76;81.36;97732.22;5065361;28;20627;-73
2023/05/12 07:10:53;;;;;;;4.83;4.43;;;13.30;93.20;;;12.92;82.30;97793.03;5079157;28;20466;-76
2023/05/12 07:13:22;;;;;;;4.93;4.53;;;13.10;93.80;;;13.03;81.70;97778.66;5060847;28;20454;-75
2023/05/12 07:15:49;;;;;;;5.07;4.57;;;13.20;93.40;;;13.20;80.76;97793.38;5060449;28;20465;-72
2023/05/12 07:18:16;;;;;;;4.90;4.50;;;13.30;92.90;;;13.24;81.72;97792.63;5080389;28;20446;-74
2023/05/12 07:20:45;;;;;;;4.60;4.13;;;13.40;93.60;;;13.60;80.33;97793.44;5061415;28;20521;-72
2023/05/12 07:23:13;;;;;;;5.73;5.20;;;13.60;93.30;;;13.62;79.36;97790.47;5079573;28;20444;-75
2023/05/12 07:25:40;;;;;;;4.77;4.37;;;13.70;92.20;;;13.81;79.65;97796.53;5081865;28;20466;-74
2023/05/12 07:28:10;;;;;;;5.40;4.70;;;13.80;92.80;;;13.89;79.88;97781.75;5080543;28;20982;-72
2023/05/12 07:30:39;;;;;;;5.30;4.17;;;13.90;92.60;;;13.76;78.66;97785.59;5076180;28;21010;-74
2023/05/12 07:33:09;;;;;;;4.90;4.40;;;14.00;91.40;;;13.60;79.58;97787.16;5072369;28;20520;-80
2023/05/12 07:35:37;;;;;;;4.33;3.93;;;13.90;91.80;;;13.58;80.11;97789.31;5085535;28;20443;-71
2023/05/12 07:38:04;;;;;;;4.50;4.10;;;13.80;92.20;;;13.41;80.93;97724.91;5084844;28;20453;-67
2023/05/12 07:40:31;;;;;;;3.70;3.30;;;13.80;93.70;;;13.94;79.42;97776.41;5080583;28;20505;-70
2023/05/12 07:42:58;;;;;;;4.23;3.83;;;13.90;92.60;;;14.40;77.88;97789.16;5083157;28;20548;-70
2023/05/12 07:45:26;;;;;;;4.50;4.10;;;14.20;92.00;;;14.67;75.31;97794.78;5066146;28;22248;-71
2023/05/12 07:47:54;;;;;;;3.93;3.60;;;14.70;90.60;;;14.81;74.97;97789.03;5075868;28;21219;-71
2023/05/12 07:50:21;;;;;;;3.67;3.33;;;14.90;90.30;;;15.02;75.30;97795.63;5063465;28;20457;-70
2023/05/12 07:52:50;;;;;;;4.03;3.73;;;14.90;90.90;;;15.36;72.08;97791.97;5055692;28;20484;-70
2023/05/12 07:55:19;;;;;;;4.00;3.60;;;15.20;89.00;;;14.95;72.17;97794.94;5062064;28;20500;-71
2023/05/12 07:57:47;;;;;;;2.60;2.40;;;15.20;87.20;;;14.55;70.75;97807.63;5084623;28;20997;-69
2023/05/12 08:00:15;;;;;;;2.90;2.67;;;14.90;85.40;;;14.55;73.23;97803.00;5078273;28;20483;-71
2023/05/12 08:02:43;;;;;;;3.20;3.00;;;14.70;87.60;;;14.52;72.54;97802.69;5055810;28;20519;-71
2023/05/12 08:05:12;;;;;;;3.43;3.13;;;14.70;86.90;;;14.30;74.38;97798.81;5082678;28;20455;-70
2023/05/12 08:07:42;;;;;;;3.50;3.17;;;14.50;87.90;;;14.57;73.09;97791.88;5084094;28;20547;-70
2023/05/12 08:10:10;;;;;;;3.10;2.90;;;14.60;88.20;;;14.50;72.59;97802.13;5057785;28;20538;-69
2023/05/12 08:12:39;;;;;;;3.17;2.87;;;14.70;87.10;;;14.59;72.28;97808.78;5080222;28;20461;-71
2023/05/12 08:15:07;;;;;;;2.70;2.50;;;14.70;87.00;;;14.30;73.63;97808.84;5079187;28;20451;-70
2023/05/12 08:17:34;;;;;;;4.70;3.47;;;14.50;87.10;;;14.10;73.07;97815.56;5078337;28;20948;-71
2023/05/12 08:20:03;;;;;;;3.80;3.50;;;14.40;86.80;;;14.01;74.05;97795.28;5079123;28;20825;-69
2023/05/12 08:22:31;;;;;;;3.30;3.00;;;14.20;87.40;;;14.29;73.11;97809.91;5065527;28;20455;-70
2023/05/12 08:24:59;;;;;;;3.13;2.87;;;14.40;87.60;;;14.06;73.84;97806.25;5067109;28;20473;-71
2023/05/12 08:27:28;;;;;;;5.00;3.37;;;14.30;87.10;;;13.99;74.67;97816.41;5067280;28;20443;-71
2023/05/12 08:29:55;;;;;;;4.33;3.03;;;14.20;87.80;;;14.11;74.01;97809.06;5069504;28;20512;-70
2023/05/12 08:32:23;;;;;;;4.00;3.40;;;14.30;87.80;;;14.13;74.05;97811.53;5061919;28;20460;-71
2023/05/12 08:34:50;;;;;;;3.37;3.07;;;14.30;87.80;;;13.86;74.71;97817.53;5067138;28;20455;-70
2023/05/12 08:37:17;;;;;;;4.53;3.40;;;14.10;87.90;;;14.23;75.62;97816.31;5083653;28;20444;-70
2023/05/12 08:39:46;;;;;;;3.43;3.13;;;14.30;90.10;;;14.02;74.01;97826.78;5066814;28;20532;-73
2023/05/12 08:42:30;;;;;;;3.90;3.50;;;14.30;87.50;;;14.30;75.25;97825.13;5062658;28;20982;-71
2023/05/12 08:44:59;;;;;;;3.57;3.27;;;14.40;89.50;;;13.91;73.97;97820.34;5069384;28;20446;-71
2023/05/12 08:47:28;;;;;;;3.93;2.93;;;14.30;87.50;;;13.26;76.18;97765.28;5064198;28;20492;-73
2023/05/12 08:50:03;;;;;;;3.50;3.20;;;13.90;89.30;;;13.46;78.45;97830.84;5075957;28;20447;-72
2023/05/12 08:52:33;;;;;;;5.37;3.83;;;13.70;90.90;;;13.35;77.51;97801.84;5079503;28;21248;-73
2023/05/12 08:55:04;;;;;;;3.47;3.17;;;13.60;90.90;;;13.65;77.93;97824.44;5064977;28;20504;-75
2023/05/12 08:57:31;;;;;;;3.90;3.40;;;13.70;91.20;;;14.27;75.11;97821.03;5062109;28;20952;-76
2023/05/12 09:00:03;;;;;;;3.40;3.10;;;14.10;90.80;;;14.27;75.36;97818.31;5084612;28;20474;-74
2023/05/12 09:02:32;;;;;;;4.20;3.80;;;14.40;89.80;;;15.03;73.50;97824.47;5083414;28;20437;-75
2023/05/12 09:04:59;;;;;;;3.47;2.90;;;14.90;89.50;;;15.29;70.65;97828.38;5064282;28;21317;-73
2023/05/12 09:07:26;;;;;;;4.80;3.13;;;15.20;87.10;;;15.50;71.28;97828.63;5085423;28;20463;-74
2023/05/12 09:09:59;;;;;;;2.97;2.77;;;15.50;87.40;;;15.78;69.70;97834.97;5082697;28;20491;-74
2023/05/12 09:12:34;;;;;;;3.40;3.10;;;15.70;86.20;;;15.81;71.22;97834.47;5078325;28;21343;-72
2023/05/12 09:15:07;;;;;;;3.77;3.47;;;15.80;86.90;;;16.12;68.97;97829.38;5080778;28;20450;-73
2023/05/12 09:17:35;;;;;;;3.10;2.90;;;16.10;86.10;;;16.26;68.27;97834.44;5085627;28;20474;-70
2023/05/12 09:20:04;;;;;;;3.30;3.00;;;16.20;85.50;;;15.80;69.93;97838.25;5085296;28;20555;-71
2023/05/12 09:22:33;;;;;;;2.90;2.57;;;16.00;85.50;;;15.83;67.80;97837.75;5088944;28;20458;-72
2023/05/12 09:25:01;;;;;;;3.37;3.07;;;16.00;84.60;;;15.19;70.85;97843.72;5059001;28;20441;-70
2023/05/12 09:27:30;;;;;;;3.60;2.97;;;15.50;85.20;;;15.39;71.34;97848.63;5067947;28;20459;-71
2023/05/12 09:29:58;;;;;;;3.03;2.80;;;15.50;86.30;;;15.83;69.73;97837.75;5082299;28;20483;-72
2023/05/12 09:32:32;;;;;;;3.77;2.90;;;15.70;86.20;;;15.56;67.51;97822.19;5076208;28;20460;-71
2023/05/12 09:35:04;;;;;;;4.57;2.53;;;15.70;84.20;;;15.88;70.18;97842.44;5083884;28;20451;-71
2023/05/12 09:37:32;;;;;;;3.27;2.97;;;15.80;85.90;;;15.99;69.25;97843.41;5081517;28;20461;-72
2023/05/12 09:40:00;;;;;;;2.83;2.63;;;16.00;85.60;;;16.57;66.24;97829.28;5083762;28;20471;-72
2023/05/12 09:42:32;;;;;;;3.53;3.23;;;16.30;84.40;;;16.11;66.50;97846.81;5068770;28;20547;-71
2023/05/12 09:45:00;;;;;;;3.70;2.77;;;16.30;83.40;;;16.28;67.10;97822.22;5084418;28;20452;-71
2023/05/12 09:47:28;;;;;;;2.47;2.27;;;16.40;84.10;;;16.50;65.42;97834.13;5083827;28;20460;-71
2023/05/12 09:49:56;;;;;;;3.00;2.80;;;16.70;83.20;;;16.37;66.46;97816.28;5077759;28;20465;-73
2023/05/12 09:52:24;;;;;;;3.17;2.87;;;16.70;83.40;;;16.42;65.65;97832.69;5058802;28;20530;-71
2023/05/12 09:54:52;;;;;;;3.50;2.73;;;16.70;82.80;;;16.54;66.14;97832.53;5058872;28;20555;-73
2023/05/12 09:57:22;;;;;;;2.37;2.10;;;16.50;83.40;;;17.43;62.92;97832.09;5066745;28;20896;-76
2023/05/12 09:59:51;;;;;;;2.00;1.80;;;17.10;82.50;;;17.80;60.59;97828.44;5066426;28;21342;-76
2023/05/12 10:02:20;;;;;;;1.87;1.77;;;17.60;81.00;;;17.60;63.26;97831.94;5086787;28;20452;-79
2023/05/12 10:04:51;;;;;;;2.23;2.03;;;17.60;81.90;;;17.26;61.37;97807.69;5081049;28;20463;-73
2023/05/12 10:07:22;;;;;;;1.93;1.83;;;17.60;79.70;;;17.90;60.09;97822.22;5063436;28;20454;-74
2023/05/12 10:09:51;;;;;;;2.37;2.20;;;17.80;79.90;;;17.63;61.34;97825.91;5072433;28;20946;-74
2023/05/12 10:12:19;;;;;;;1.70;1.60;;;17.70;79.70;;;16.82;61.77;97833.31;5079997;28;20483;-73
2023/05/12 10:14:49;;;;;;;2.57;2.20;;;17.30;78.40;;;16.37;63.47;97825.28;5069840;28;20446;-73
2023/05/12 10:17:19;;;;;;;1.70;1.60;;;16.80;79.70;;;16.50;62.50;97831.41;5062469;28;20454;-73
2023/05/12 10:19:47;;;;;;;2.17;1.97;;;16.80;79.60;;;16.42;63.58;97822.59;5091691;28;21303;-75
2023/05/12 10:22:17;;;;;;;1.73;1.63;;;16.60;80.10;;;16.85;62.00;97830.06;5094268;28;20465;-73
2023/05/12 10:24:46;;;;;;;1.80;1.70;;;16.80;79.80;;;16.48;62.77;97833.56;5088378;28;20475;-74